Time;durP1;ratioP1;P1;durP2;ratioP2;P2;SDS_P1;SDS_P2;PMS_P1;PMS_P2;Temp;Humidity;BMP_temperature;BMP_pressure;BME280_temperature;BME280_humidity;BME280_pressure;Samples;Min_cycle;Max_cycle;Signal;HPM_P1;HPM_P2
2023/07/19 00:02:25;;;;;;;3.30;1.85;;;;;;;19.63;72.94;101363.25;6081142;29;20488;-68
2023/07/19 00:05:48;;;;;;;3.58;1.95;;;;;;;19.69;72.64;101360.59;6092905;29;20255;-67
2023/07/19 00:09:10;;;;;;;1.90;1.80;;;;;;;19.72;72.96;101359.38;6103480;29;20601;-66
2023/07/19 00:12:33;;;;;;;4.40;2.65;;;;;;;19.72;72.83;101359.38;6104674;28;20523;-67
2023/07/19 00:15:55;;;;;;;1.77;1.10;;;;;;;19.69;72.74;101344.19;6094776;28;20268;-67
2023/07/19 00:19:17;;;;;;;1.38;1.23;;;;;;;19.70;72.59;101334.97;6104822;28;20243;-69
2023/07/19 00:22:39;;;;;;;4.72;1.92;;;;;;;19.62;72.76;101337.75;6099075;29;20236;-67
2023/07/19 00:26:02;;;;;;;1.60;1.50;;;;;;;19.67;72.87;101331.75;6101077;28;20240;-66
2023/07/19 00:29:24;;;;;;;2.53;2.13;;;;;;;19.63;73.19;101335.88;6093648;29;20248;-67
2023/07/19 00:32:45;;;;;;;4.85;1.42;;;;;;;19.65;73.02;101336.56;6077084;29;20220;-67
2023/07/19 00:36:06;;;;;;;2.30;2.10;;;;;;;19.65;73.34;101342.84;6094761;29;20240;-67
2023/07/19 00:39:27;;;;;;;3.33;1.65;;;;;;;19.63;73.02;101330.41;6104110;29;20231;-66
2023/07/19 00:42:55;;;;;;;1.67;1.30;;;;;;;19.58;73.59;101333.69;6110762;28;20236;-67
2023/07/19 00:46:17;;;;;;;2.30;2.10;;;;;;;19.56;73.74;101324.81;6105144;29;20510;-67
2023/07/19 00:49:40;;;;;;;2.15;1.40;;;;;;;19.58;73.99;101319.16;6113920;28;20240;-67
2023/07/19 00:53:02;;;;;;;2.35;1.58;;;;;;;19.62;73.85;101309.53;6101448;29;20571;-67
2023/07/19 00:56:26;;;;;;;4.45;1.83;;;;;;;19.59;74.01;101315.38;6114387;29;20243;-67
2023/07/19 00:59:49;;;;;;;1.83;1.42;;;;;;;19.56;74.15;101311.16;6108996;29;20239;-68
2023/07/19 01:03:10;;;;;;;1.63;1.52;;;;;;;19.65;73.60;101306.47;6095149;29;20618;-67
2023/07/19 01:06:31;;;;;;;2.50;2.15;;;;;;;19.56;73.32;101308.41;6070719;29;20252;-66
2023/07/19 01:09:54;;;;;;;2.47;1.98;;;;;;;19.44;73.26;101306.28;6127216;28;20227;-68
2023/07/19 01:13:15;;;;;;;2.10;1.65;;;;;;;19.44;73.58;101300.81;6108665;29;20315;-67
2023/07/19 01:16:38;;;;;;;2.08;1.38;;;;;;;19.35;73.93;101308.22;6115349;29;20235;-66
2023/07/19 01:19:59;;;;;;;2.28;1.55;;;;;;;19.43;73.80;101313.63;6100965;28;20318;-67
2023/07/19 01:23:22;;;;;;;0.90;0.90;;;;;;;19.40;73.75;101307.69;6101954;28;20239;-67
2023/07/19 01:26:44;;;;;;;2.58;1.75;;;;;;;19.43;73.64;101312.78;6106632;29;20227;-67
2023/07/19 01:30:07;;;;;;;2.92;2.17;;;;;;;19.45;74.11;101313.44;6115991;29;20247;-67
2023/07/19 01:33:28;;;;;;;2.13;1.92;;;;;;;19.41;73.96;101317.59;6104577;29;20239;-67
2023/07/19 01:36:50;;;;;;;2.17;1.98;;;;;;;19.37;74.43;101316.25;6111548;29;20235;-67
2023/07/19 01:40:13;;;;;;;1.95;1.75;;;;;;;19.39;74.78;101322.38;6114514;29;20235;-67
2023/07/19 01:43:35;;;;;;;2.45;1.30;;;;;;;19.37;74.36;101322.56;6094843;29;20232;-66
2023/07/19 01:46:56;;;;;;;5.53;2.75;;;;;;;19.32;73.79;101319.50;6096964;28;20638;-67
2023/07/19 01:50:20;;;;;;;1.67;1.58;;;;;;;19.26;73.91;101314.75;6118235;28;20231;-67
2023/07/19 01:53:41;;;;;;;2.92;1.90;;;;;;;19.27;74.12;101310.13;6115320;28;20480;-67
2023/07/19 01:57:06;;;;;;;5.22;1.98;;;;;;;19.20;74.20;101312.75;6100664;28;20244;-67
2023/07/19 02:00:27;;;;;;;1.30;1.23;;;;;;;19.23;74.21;101309.66;6104055;28;20240;-67
2023/07/19 02:03:48;;;;;;;2.28;1.63;;;;;;;19.15;74.30;101310.56;6094909;29;20248;-67
2023/07/19 02:07:09;;;;;;;3.80;1.73;;;;;;;19.14;74.45;101310.75;6079904;29;20259;-66
2023/07/19 02:10:31;;;;;;;3.35;1.90;;;;;;;19.15;74.77;101304.22;6100651;28;20227;-67
2023/07/19 02:13:53;;;;;;;4.40;2.85;;;;;;;19.00;74.98;101306.88;6104826;29;20587;-67
2023/07/19 02:17:15;;;;;;;1.70;1.58;;;;;;;19.08;75.25;101300.53;6088233;28;20232;-67
2023/07/19 02:20:38;;;;;;;2.15;2.03;;;;;;;19.07;75.21;101296.94;6092160;28;20232;-67
2023/07/19 02:24:02;;;;;;;2.85;2.65;;;;;;;19.03;75.26;101290.13;6085875;28;20236;-68
2023/07/19 02:27:24;;;;;;;1.67;1.55;;;;;;;19.07;75.04;101296.94;6110023;28;20248;-67
2023/07/19 02:30:49;;;;;;;1.80;1.67;;;;;;;19.04;74.90;101291.00;6109472;28;20232;-66
2023/07/19 02:34:10;;;;;;;1.85;1.50;;;;;;;19.04;74.73;101299.19;6109788;28;20240;-67
2023/07/19 02:37:32;;;;;;;1.85;1.50;;;;;;;19.02;74.58;101302.09;6110132;28;20630;-67
2023/07/19 02:41:00;;;;;;;2.47;1.55;;;;;;;18.83;74.38;101305.31;6096931;28;20495;-67
2023/07/19 02:44:21;;;;;;;2.75;1.67;;;;;;;18.91;74.77;101294.31;6104130;28;20236;-67
2023/07/19 02:47:44;;;;;;;1.23;1.13;;;;;;;18.83;74.64;101290.78;6117041;28;20231;-67
2023/07/19 02:51:05;;;;;;;1.80;1.02;;;;;;;18.82;74.55;101279.00;6103214;29;20231;-67
2023/07/19 02:54:26;;;;;;;1.70;1.60;;;;;;;18.72;74.88;101272.91;6098418;29;20650;-67
2023/07/19 02:57:51;;;;;;;2.20;1.60;;;;;;;18.69;75.20;101280.63;6083262;29;20614;-67
2023/07/19 03:01:14;;;;;;;3.53;1.35;;;;;;;18.75;74.90;101274.44;6099155;29;20270;-66
2023/07/19 03:04:37;;;;;;;1.75;1.02;;;;;;;18.74;75.17;101270.84;6101729;29;20550;-67
2023/07/19 03:08:00;;;;;;;3.22;1.48;;;;;;;18.65;75.30;101277.38;6082408;29;20583;-67
2023/07/19 03:15:02;;;;;;;2.25;0.88;;;;;;;18.61;76.16;101273.28;6086899;28;20274;-67
2023/07/19 03:18:24;;;;;;;2.10;1.90;;;;;;;18.56;76.47;101280.34;6089524;29;20634;-67
2023/07/19 03:21:50;;;;;;;1.25;1.15;;;;;;;18.55;76.98;101257.63;6084967;29;20244;-67
2023/07/19 03:25:12;;;;;;;2.58;1.80;;;;;;;18.48;76.97;101261.25;6105985;29;20541;-67
2023/07/19 03:28:33;;;;;;;2.65;2.03;;;;;;;18.50;77.61;101254.59;6102383;29;20754;-66
2023/07/19 03:31:55;;;;;;;2.80;1.92;;;;;;;18.49;77.62;101254.75;6099097;29;20239;-66
2023/07/19 03:35:17;;;;;;;2.28;2.08;;;;;;;18.38;77.70;101254.09;6096347;29;20280;-67
2023/07/19 03:38:40;;;;;;;1.30;1.20;;;;;;;18.40;77.62;101258.53;6070931;28;20239;-67
2023/07/19 03:42:09;;;;;;;2.65;1.33;;;;;;;18.31;77.64;101261.28;6103289;28;20264;-67
2023/07/19 03:45:30;;;;;;;4.43;1.45;;;;;;;18.29;77.44;101263.34;6089521;29;20235;-66
2023/07/19 03:48:51;;;;;;;1.63;1.52;;;;;;;18.14;77.43;101256.06;6099689;29;21001;-66
2023/07/19 03:52:13;;;;;;;2.15;1.80;;;;;;;18.09;77.67;101258.47;6083341;29;20228;-66
2023/07/19 03:55:38;;;;;;;1.80;1.25;;;;;;;18.02;77.15;101257.47;6103332;28;20538;-67
2023/07/19 03:59:01;;;;;;;2.10;1.88;;;;;;;18.07;77.26;101261.38;6102918;28;20235;-68
2023/07/19 04:02:23;;;;;;;2.13;1.63;;;;;;;18.19;77.14;101268.16;6104191;28;20244;-67
2023/07/19 04:05:44;;;;;;;3.05;2.80;;;;;;;18.14;77.14;101267.84;6112035;28;20721;-66
2023/07/19 04:09:05;;;;;;;4.85;4.45;;;;;;;18.14;76.99;101259.66;6067054;29;20231;-67
2023/07/19 04:12:28;;;;;;;4.50;4.18;;;;;;;18.06;76.85;101256.09;6081057;29;20662;-67
2023/07/19 04:15:50;;;;;;;4.13;2.95;;;;;;;18.05;76.93;101244.31;6108238;28;20236;-66
2023/07/19 04:19:12;;;;;;;3.28;2.90;;;;;;;17.92;76.99;101235.00;6089698;28;20255;-66
2023/07/19 04:22:34;;;;;;;2.20;1.92;;;;;;;17.95;77.20;101231.91;6087351;29;20885;-66
2023/07/19 04:25:56;;;;;;;4.15;3.75;;;;;;;17.96;77.43;101241.81;6082008;29;20361;-67
2023/07/19 04:29:19;;;;;;;2.35;2.17;;;;;;;17.88;77.52;101236.34;6085236;29;20231;-67
2023/07/19 04:32:42;;;;;;;2.50;1.25;;;;;;;17.83;77.34;101245.09;6097024;29;20259;-67
2023/07/19 04:36:11;;;;;;;2.95;2.40;;;;;;;17.97;77.86;101244.34;6058300;29;20521;-67
2023/07/19 04:39:34;;;;;;;5.13;1.55;;;;;;;17.92;77.75;101241.28;6070203;29;20247;-68
2023/07/19 04:42:56;;;;;;;2.15;1.45;;;;;;;17.91;78.27;101227.84;6075001;28;20248;-67
2023/07/19 04:46:20;;;;;;;1.20;1.10;;;;;;;17.79;78.56;101229.22;6109893;28;20243;-68
2023/07/19 04:49:43;;;;;;;2.88;1.58;;;;;;;17.80;78.84;101223.59;6084143;28;20236;-67
2023/07/19 04:53:04;;;;;;;2.30;1.35;;;;;;;17.77;79.16;101226.69;6111331;28;20227;-68
2023/07/19 04:56:29;;;;;;;1.60;1.17;;;;;;;17.92;79.33;101233.09;6071283;28;20231;-68
2023/07/19 04:59:54;;;;;;;2.05;1.33;;;;;;;17.93;79.46;101248.47;6081751;28;21994;-67
2023/07/19 05:03:16;;;;;;;3.70;1.33;;;;;;;17.93;79.46;101258.50;6070720;28;20248;-67
2023/07/19 05:06:38;;;;;;;2.72;2.03;;;;;;;17.95;79.79;101264.66;6105580;28;20244;-68
2023/07/19 05:10:07;;;;;;;1.20;1.10;;;;;;;17.77;80.07;101269.47;6098964;28;20263;-67
2023/07/19 05:13:29;;;;;;;3.13;1.52;;;;;;;17.88;80.20;101263.63;6070213;28;20255;-67
2023/07/19 05:16:51;;;;;;;1.70;1.00;;;;;;;17.73;80.41;101268.13;6104757;28;20236;-66
2023/07/19 05:20:14;;;;;;;2.03;1.02;;;;;;;17.72;80.38;101263.66;6102546;28;20228;-67
2023/07/19 05:23:36;;;;;;;1.13;1.02;;;;;;;17.71;79.96;101251.91;6053392;29;20236;-67
2023/07/19 05:26:59;;;;;;;2.13;1.67;;;;;;;17.73;79.66;101255.31;6070338;29;20232;-67
2023/07/19 05:30:21;;;;;;;3.03;1.10;;;;;;;17.74;79.41;101259.75;6072089;29;20695;-68
2023/07/19 05:33:43;;;;;;;1.15;1.00;;;;;;;17.73;79.43;101254.47;6097389;28;20231;-67
2023/07/19 05:37:08;;;;;;;0.88;0.88;;;;;;;17.62;79.75;101249.38;6089398;29;20638;-68
2023/07/19 05:40:31;;;;;;;1.42;1.08;;;;;;;17.77;79.44;101251.25;6075561;29;20241;-66
2023/07/19 05:43:54;;;;;;;0.80;0.73;;;;;;;17.87;79.28;101251.03;6105989;28;20235;-68
2023/07/19 05:47:17;;;;;;;5.45;1.30;;;;;;;17.88;78.73;101250.00;6089962;29;20236;-67
2023/07/19 05:50:38;;;;;;;4.97;1.50;;;;;;;17.82;78.58;101242.50;6077204;29;20370;-68
2023/07/19 05:54:03;;;;;;;3.72;1.40;;;;;;;17.89;78.22;101251.72;6080965;29;20226;-67
2023/07/19 05:57:25;;;;;;;2.42;1.40;;;;;;;17.91;77.92;101252.38;6080663;28;20712;-68
2023/07/19 06:00:47;;;;;;;1.75;1.20;;;;;;;17.96;77.25;101253.56;6078915;29;20714;-67
2023/07/19 06:04:13;;;;;;;1.67;1.33;;;;;;;17.87;77.61;101240.13;6090441;29;20231;-68
2023/07/19 06:07:37;;;;;;;1.58;1.48;;;;;;;17.80;77.62;101239.09;6097727;29;20239;-67
2023/07/19 06:11:00;;;;;;;3.13;1.10;;;;;;;17.88;77.63;101236.34;6094363;28;20241;-67
2023/07/19 06:14:21;;;;;;;3.80;1.73;;;;;;;17.95;77.53;101237.38;6105152;28;20239;-67
2023/07/19 06:17:43;;;;;;;1.90;1.10;;;;;;;17.91;77.66;101233.28;6106025;29;20233;-67
2023/07/19 06:21:06;;;;;;;1.48;0.77;;;;;;;17.90;76.92;101235.16;6102785;28;20224;-67
2023/07/19 06:24:28;;;;;;;24.77;8.52;;;;;;;17.89;76.78;101238.94;6093364;28;20236;-67
2023/07/19 06:27:51;;;;;;;13.70;6.07;;;;;;;17.99;76.54;101225.94;6081926;29;20614;-67
2023/07/19 06:31:13;;;;;;;19.55;11.43;;;;;;;18.03;76.78;101223.69;6088818;29;20240;-67
2023/07/19 06:34:34;;;;;;;2.47;2.03;;;;;;;18.21;76.83;101229.78;6078351;28;20243;-68
2023/07/19 06:37:55;;;;;;;5.68;2.97;;;;;;;18.26;76.57;101235.53;6104097;29;20236;-67
2023/07/19 06:41:18;;;;;;;3.17;2.38;;;;;;;18.32;76.52;101234.84;6107221;29;20578;-67
2023/07/19 06:44:56;;;;;;;4.45;2.55;;;;;;;18.52;76.41;101232.56;6093077;28;20236;-67
2023/07/19 06:48:22;;;;;;;2.90;2.35;;;;;;;18.47;76.21;101224.06;6076778;29;20232;-67
2023/07/19 06:51:44;;;;;;;2.53;1.50;;;;;;;18.19;76.64;101224.47;6069649;29;20240;-67
2023/07/19 06:55:06;;;;;;;45.95;11.45;;;;;;;18.10;76.75;101220.09;6099211;28;20239;-66
2023/07/19 06:58:27;;;;;;;11.90;4.60;;;;;;;18.22;76.67;101218.69;6085650;28;20335;-67
2023/07/19 07:01:50;;;;;;;4.60;2.45;;;;;;;18.27;76.67;101212.69;6093886;28;20319;-67
2023/07/19 07:05:12;;;;;;;8.13;2.22;;;;;;;18.42;76.68;101205.44;6096086;28;20235;-67
2023/07/19 07:08:34;;;;;;;1.35;1.10;;;;;;;18.39;76.48;101208.53;6115104;28;20259;-68
2023/07/19 07:11:56;;;;;;;1.48;1.20;;;;;;;18.39;76.30;101203.06;6107094;29;20263;-68
2023/07/19 07:15:17;;;;;;;0.80;0.80;;;;;;;18.58;75.80;101210.00;6106421;28;20231;-67
2023/07/19 07:18:43;;;;;;;0.95;0.88;;;;;;;18.62;75.33;101211.34;6087189;29;20240;-68
2023/07/19 07:22:05;;;;;;;1.17;0.95;;;;;;;18.84;74.72;101210.50;6120791;29;20232;-68
2023/07/19 07:25:26;;;;;;;1.42;0.90;;;;;;;18.85;74.64;101207.59;6108512;29;20243;-68
2023/07/19 07:28:48;;;;;;;1.65;1.48;;;;;;;18.81;74.82;101210.88;6084959;29;20542;-66
2023/07/19 07:32:11;;;;;;;1.17;1.10;;;;;;;18.99;74.75;101211.41;6110776;29;21078;-69
2023/07/19 07:35:34;;;;;;;1.10;0.85;;;;;;;18.89;74.83;101206.22;6078257;29;20235;-68
2023/07/19 07:38:56;;;;;;;1.08;0.90;;;;;;;18.81;74.61;101214.47;6096805;29;20295;-68
2023/07/19 07:42:18;;;;;;;1.95;1.05;;;;;;;18.65;74.96;101205.53;6090585;29;20310;-67
2023/07/19 07:45:42;;;;;;;1.00;0.90;;;;;;;18.64;75.10;101210.13;6111696;28;20231;-68
2023/07/19 07:49:05;;;;;;;2.92;0.90;;;;;;;18.71;75.16;101221.19;6093572;28;20243;-68
2023/07/19 07:52:28;;;;;;;0.95;0.95;;;;;;;18.79;75.10;101224.72;6084039;29;20240;-67
2023/07/19 07:55:50;;;;;;;1.08;0.90;;;;;;;19.03;74.47;101226.41;6097807;28;20282;-68
2023/07/19 07:59:11;;;;;;;1.52;1.00;;;;;;;19.09;73.73;101221.06;6100523;28;20250;-68
2023/07/19 08:02:33;;;;;;;0.90;0.73;;;;;;;19.33;72.92;101217.31;6104822;28;20540;-68
2023/07/19 08:05:55;;;;;;;1.23;1.13;;;;;;;19.54;72.35;101212.00;6106589;28;20247;-67
2023/07/19 08:09:18;;;;;;;2.75;1.52;;;;;;;19.76;71.75;101211.09;6086071;28;20274;-68
2023/07/19 08:12:39;;;;;;;0.95;0.82;;;;;;;19.91;71.15;101205.63;6082173;29;20248;-66
2023/07/19 08:16:01;;;;;;;1.50;0.90;;;;;;;20.06;70.45;101201.00;6105312;28;20256;-68
2023/07/19 08:19:23;;;;;;;3.13;1.15;;;;;;;20.31;70.10;101196.09;6093591;28;20481;-68
2023/07/19 08:22:44;;;;;;;2.10;1.27;;;;;;;20.21;68.53;101190.06;6093407;28;20248;-68
2023/07/19 08:26:07;;;;;;;1.50;1.40;;;;;;;20.63;67.78;101190.16;6064884;28;20239;-68
2023/07/19 08:29:29;;;;;;;0.95;0.95;;;;;;;21.03;66.98;101186.81;6101570;28;21112;-68
2023/07/19 08:32:50;;;;;;;1.10;0.82;;;;;;;21.03;66.45;101188.69;6078967;29;20286;-67
2023/07/19 08:36:12;;;;;;;3.00;1.10;;;;;;;20.98;66.36;101188.41;6107429;28;20320;-68
2023/07/19 08:39:34;;;;;;;1.17;0.82;;;;;;;20.78;66.56;101187.38;6090509;29;20235;-67
2023/07/19 08:42:57;;;;;;;1.90;1.00;;;;;;;20.88;67.17;101183.25;6100474;29;20260;-68
2023/07/19 08:46:19;;;;;;;1.73;0.82;;;;;;;21.17;66.47;101194.09;6113987;28;20232;-68
2023/07/19 08:49:42;;;;;;;2.10;1.90;;;;;;;21.06;64.94;101188.31;6088156;29;20231;-68
2023/07/19 08:53:04;;;;;;;7.45;3.15;;;;;;;21.11;64.49;101174.88;6082845;29;20731;-67
2023/07/19 08:56:26;;;;;;;1.98;1.75;;;;;;;21.40;64.49;101182.94;6065558;28;20259;-67
2023/07/19 08:59:52;;;;;;;1.23;1.13;;;;;;;21.56;64.52;101190.84;6104108;28;20227;-68
2023/07/19 09:03:14;;;;;;;1.95;1.17;;;;;;;21.45;64.54;101181.28;6099930;28;20231;-68
2023/07/19 09:06:36;;;;;;;1.55;0.98;;;;;;;21.67;64.06;101179.34;6074289;29;20224;-67
2023/07/19 09:10:00;;;;;;;2.05;1.67;;;;;;;22.10;63.25;101177.28;6102666;28;20231;-67
2023/07/19 09:13:22;;;;;;;1.05;1.05;;;;;;;22.15;62.11;101172.88;6098355;28;20239;-69
2023/07/19 09:16:47;;;;;;;1.98;1.00;;;;;;;22.14;62.08;101165.69;6094034;28;20228;-68
2023/07/19 09:20:09;;;;;;;0.73;0.73;;;;;;;21.95;62.87;101169.19;6103374;28;20356;-68
2023/07/19 09:23:35;;;;;;;2.10;0.88;;;;;;;21.97;62.22;101174.47;6103997;29;20232;-67
2023/07/19 09:26:57;;;;;;;1.15;0.75;;;;;;;22.12;61.78;101177.94;6089124;29;20323;-67
2023/07/19 09:30:18;;;;;;;1.17;1.08;;;;;;;21.94;62.21;101166.66;6110814;28;20226;-66
2023/07/19 09:33:42;;;;;;;1.65;1.10;;;;;;;22.02;61.91;101164.59;6106571;28;20233;-67
2023/07/19 09:37:04;;;;;;;1.65;1.25;;;;;;;22.61;61.29;101162.06;6095532;28;20240;-68
2023/07/19 09:40:26;;;;;;;1.38;1.00;;;;;;;22.97;59.59;101161.72;6103553;28;20244;-68
2023/07/19 09:43:49;;;;;;;2.90;1.08;;;;;;;23.05;59.39;101154.13;6074171;29;20323;-69
2023/07/19 09:47:12;;;;;;;2.63;1.60;;;;;;;22.56;59.69;101153.59;6094896;29;20236;-67
2023/07/19 09:50:37;;;;;;;0.95;0.82;;;;;;;22.09;59.93;101153.63;6107626;28;20285;-67
2023/07/19 09:54:01;;;;;;;0.98;0.70;;;;;;;22.71;60.05;101143.31;6096190;29;20236;-67
2023/07/19 09:57:26;;;;;;;3.22;1.67;;;;;;;22.71;60.92;101150.69;6105671;29;20235;-67
2023/07/19 10:00:48;;;;;;;0.80;0.80;;;;;;;22.16;61.06;101152.59;6097266;29;20905;-68
2023/07/19 10:04:24;;;;;;;2.28;1.10;;;;;;;22.05;61.79;101153.16;6105503;29;20255;-68
2023/07/19 10:07:50;;;;;;;0.55;0.55;;;;;;;22.13;61.57;101142.00;6121841;28;20233;-67
2023/07/19 10:11:23;;;;;;;1.23;1.00;;;;;;;22.01;61.86;101149.13;6089138;29;20625;-67
2023/07/19 10:14:52;;;;;;;1.65;0.73;;;;;;;21.94;62.57;101131.81;6102030;28;20354;-67
2023/07/19 10:18:14;;;;;;;0.70;0.70;;;;;;;21.74;62.39;101122.56;6101203;28;20229;-68
2023/07/19 10:21:37;;;;;;;1.02;0.90;;;;;;;22.61;61.35;101134.59;6080333;28;20263;-68
2023/07/19 10:25:06;;;;;;;2.30;1.15;;;;;;;23.78;59.73;101125.50;6110891;28;20260;-68
2023/07/19 10:28:29;;;;;;;1.10;1.00;;;;;;;24.21;57.70;101124.94;6089950;29;20241;-68
2023/07/19 10:31:51;;;;;;;1.27;1.17;;;;;;;24.41;57.08;101126.53;6095813;29;20330;-67
2023/07/19 10:35:30;;;;;;;2.50;1.35;;;;;;;24.04;57.56;101121.84;6103702;29;21689;-68
2023/07/19 10:38:52;;;;;;;3.30;1.92;;;;;;;23.53;57.45;101129.16;6096804;29;20590;-68
2023/07/19 10:42:15;;;;;;;2.65;2.30;;;;;;;23.25;58.27;101129.38;6073779;29;20252;-67
2023/07/19 10:45:37;;;;;;;3.60;1.60;;;;;;;22.13;58.88;101124.69;6083501;29;20253;-67
2023/07/19 10:48:59;;;;;;;1.52;1.42;;;;;;;21.18;60.47;101137.38;6107247;29;20334;-68
2023/07/19 10:52:22;;;;;;;2.72;1.48;;;;;;;21.71;60.99;101128.47;6101190;29;20402;-67
2023/07/19 10:55:45;;;;;;;1.52;0.93;;;;;;;22.32;60.40;101131.31;6106451;28;20240;-67
2023/07/19 10:59:08;;;;;;;2.03;1.10;;;;;;;22.07;61.17;101126.34;6104330;28;20216;-67
2023/07/19 11:02:29;;;;;;;2.75;1.67;;;;;;;21.70;61.13;101125.91;6095803;28;20232;-68
2023/07/19 11:05:52;;;;;;;1.80;1.02;;;;;;;21.58;61.30;101131.13;6095243;28;20314;-67
2023/07/19 11:09:14;;;;;;;3.47;2.08;;;;;;;20.59;63.17;101128.56;6088728;28;22573;-68
2023/07/19 11:12:36;;;;;;;2.25;1.85;;;;;;;20.58;63.42;101133.22;6101931;28;20231;-67
2023/07/19 11:16:00;;;;;;;3.65;1.85;;;;;;;20.84;63.74;101124.38;6091829;28;20232;-67
2023/07/19 11:19:33;;;;;;;3.22;1.92;;;;;;;21.34;62.52;101118.72;6107197;28;20243;-67
2023/07/19 11:23:05;;;;;;;2.65;2.20;;;;;;;21.57;62.12;101115.69;6107257;28;20503;-68
2023/07/19 11:26:27;;;;;;;3.20;1.42;;;;;;;22.27;60.64;101104.47;6079441;29;20617;-67
2023/07/19 11:29:50;;;;;;;2.55;1.67;;;;;;;21.52;61.00;101112.72;6074567;29;20326;-67
2023/07/19 11:33:13;;;;;;;2.03;1.88;;;;;;;21.96;59.81;101101.38;6064752;29;20231;-68
2023/07/19 11:36:35;;;;;;;2.85;1.80;;;;;;;21.70;60.98;101103.94;6093646;29;20232;-67
2023/07/19 11:39:58;;;;;;;1.90;1.77;;;;;;;20.57;62.87;101103.25;6076756;29;20268;-67
2023/07/19 11:43:25;;;;;;;3.75;2.30;;;;;;;20.94;62.82;101111.22;6097978;28;20258;-68
2023/07/19 11:46:48;;;;;;;2.20;2.00;;;;;;;20.07;65.02;101106.03;6089769;28;20232;-68
2023/07/19 11:50:14;;;;;;;3.05;2.75;;;;;;;20.18;65.42;101100.91;6094819;28;20236;-67
2023/07/19 11:53:37;;;;;;;2.80;2.35;;;;;;;20.42;65.87;101088.78;6078444;28;20236;-68
2023/07/19 11:56:59;;;;;;;3.08;2.33;;;;;;;22.11;62.36;101099.34;6083685;28;20276;-68
2023/07/19 12:00:23;;;;;;;2.58;2.35;;;;;;;22.32;59.65;101096.44;6102462;28;20240;-68
2023/07/19 12:03:46;;;;;;;2.67;2.47;;;;;;;22.97;58.01;101091.06;6095063;28;20228;-68
2023/07/19 12:07:09;;;;;;;1.40;1.30;;;;;;;23.46;56.30;101089.78;6085974;28;20232;-68
2023/07/19 12:10:30;;;;;;;7.68;2.55;;;;;;;21.36;59.29;101094.69;6074326;29;20236;-69
2023/07/19 12:13:56;;;;;;;2.25;1.80;;;;;;;21.89;59.72;101095.88;6105960;28;20240;-70
2023/07/19 12:17:22;;;;;;;1.52;1.40;;;;;;;22.06;59.37;101094.47;6106977;28;20330;-68
2023/07/19 12:20:44;;;;;;;1.85;1.70;;;;;;;21.86;59.39;101092.69;6084806;28;20236;-69
2023/07/19 12:24:35;;;;;;;3.60;1.77;;;;;;;21.32;61.06;101101.63;6068397;29;20327;-69
2023/07/19 12:28:10;;;;;;;1.98;1.88;;;;;;;21.70;61.08;101091.09;6075019;29;20458;-69
2023/07/19 12:31:32;;;;;;;1.73;1.60;;;;;;;21.97;60.48;101092.09;6074289;29;20646;-68
2023/07/19 12:34:54;;;;;;;3.67;2.63;;;;;;;22.43;59.28;101090.34;6103289;28;20490;-69
2023/07/19 12:38:19;;;;;;;3.00;2.10;;;;;;;22.82;58.62;101086.84;6047601;29;20223;-68
2023/07/19 12:41:43;;;;;;;1.60;1.50;;;;;;;22.70;58.30;101083.84;6043081;29;20243;-68
2023/07/19 12:45:09;;;;;;;2.45;1.42;;;;;;;22.48;59.56;101081.47;6097854;29;20231;-68
2023/07/19 12:48:31;;;;;;;1.70;1.60;;;;;;;22.41;59.83;101083.34;6090963;29;20236;-68
2023/07/19 12:51:55;;;;;;;2.22;1.45;;;;;;;22.19;59.59;101082.69;6057630;29;20224;-68
2023/07/19 12:55:17;;;;;;;1.95;1.73;;;;;;;22.22;59.58;101079.50;6102332;29;20235;-68
2023/07/19 12:58:40;;;;;;;4.45;1.88;;;;;;;22.61;59.25;101065.88;6091294;28;20236;-68
2023/07/19 13:02:14;;;;;;;5.53;1.67;;;;;;;23.04;58.88;101066.31;6098769;29;20240;-68
2023/07/19 13:05:38;;;;;;;1.92;1.60;;;;;;;23.39;58.44;101062.28;6088766;29;20233;-68
2023/07/19 13:09:02;;;;;;;4.93;3.85;;;;;;;23.91;56.96;101054.91;6079680;29;20247;-68
2023/07/19 13:12:23;;;;;;;3.97;2.55;;;;;;;25.78;53.04;101054.72;6080304;23;20232;-68
2023/07/19 13:15:46;;;;;;;1.50;1.40;;;;;;;25.00;52.95;101059.13;6119941;28;20258;-68
2023/07/19 13:19:08;;;;;;;3.30;2.88;;;;;;;24.69;53.87;101059.97;6094838;28;20712;-68
2023/07/19 13:22:30;;;;;;;6.72;6.13;;;;;;;23.92;55.07;101059.34;6113020;28;20243;-68
2023/07/19 13:25:52;;;;;;;6.95;5.50;;;;;;;23.69;56.17;101051.59;6086745;28;20247;-68
2023/07/19 13:29:17;;;;;;;3.08;2.60;;;;;;;23.26;57.96;101050.44;6116096;28;20235;-68
2023/07/19 13:33:09;;;;;;;2.35;1.73;;;;;;;22.90;58.75;101049.00;6090428;28;20227;-67
2023/07/19 13:36:31;;;;;;;2.42;1.52;;;;;;;22.68;59.01;101054.88;6096852;28;20239;-68
2023/07/19 13:39:52;;;;;;;2.03;1.85;;;;;;;22.42;59.48;101052.94;6098711;28;20522;-68
2023/07/19 13:43:20;;;;;;;3.35;1.38;;;;;;;22.22;60.38;101057.53;6104281;28;20247;-67
2023/07/19 13:46:42;;;;;;;4.00;1.60;;;;;;;22.12;60.62;101052.44;6109381;28;20235;-68
2023/07/19 13:50:06;;;;;;;1.60;1.50;;;;;;;21.75;61.10;101050.16;6100646;28;20243;-68
2023/07/19 13:53:27;;;;;;;2.22;1.40;;;;;;;21.80;62.01;101058.59;6114428;28;20255;-68
2023/07/19 13:56:49;;;;;;;1.42;1.33;;;;;;;21.54;63.85;101058.50;6063092;28;20317;-68
2023/07/19 14:00:11;;;;;;;2.45;2.05;;;;;;;21.37;65.95;101068.94;6087520;28;20236;-68
2023/07/19 14:03:33;;;;;;;2.50;2.00;;;;;;;21.27;68.01;101073.97;6095341;29;20730;-67
2023/07/19 14:06:58;;;;;;;4.10;3.00;;;;;;;20.79;69.65;101084.91;6094099;29;20236;-67
2023/07/19 14:10:23;;;;;;;2.53;2.28;;;;;;;20.24;72.79;101085.63;6117805;28;20255;-67
2023/07/19 14:13:48;;;;;;;2.40;2.20;;;;;;;20.16;73.90;101086.56;6108735;28;20304;-68
2023/07/19 14:17:14;;;;;;;3.63;1.67;;;;;;;19.91;76.04;101080.56;6061363;28;20491;-67
2023/07/19 14:20:36;;;;;;;1.67;1.58;;;;;;;19.42;77.29;101076.72;6102071;28;20227;-69
2023/07/19 14:24:45;;;;;;;1.55;1.10;;;;;;;20.00;77.80;101073.09;6100822;28;20222;-66
2023/07/19 14:29:08;;;;;;;1.77;1.20;;;;;;;20.92;75.58;101063.09;6089649;28;20260;-66
2023/07/19 14:33:18;;;;;;;3.38;1.50;;;;;;;21.32;74.83;101051.38;6025611;28;20238;-67
2023/07/19 14:37:00;;;;;;;3.53;1.70;;;;;;;23.07;71.52;101046.66;5991942;28;20233;-67
2023/07/19 14:40:23;;;;;;;1.85;1.27;;;;;;;23.59;69.74;101046.53;5967359;29;20332;-66
2023/07/19 14:43:56;;;;;;;5.25;1.60;;;;;;;23.06;68.26;101039.44;6104898;28;20613;-65
2023/07/19 14:51:45;;;;;;;1.00;0.70;;;;;;;24.12;63.45;101040.84;6104102;23;20328;-66
2023/07/19 14:55:07;;;;;;;1.65;1.02;;;;;;;24.42;64.84;101041.94;6145789;23;20222;-66
2023/07/19 14:58:30;;;;;;;1.73;1.08;;;;;;;23.86;63.10;101032.69;6113951;28;20586;-65
2023/07/19 15:01:51;;;;;;;1.92;1.83;;;;;;;23.48;64.06;101033.47;6115084;28;20238;-66
2023/07/19 15:05:15;;;;;;;3.97;3.58;;;;;;;24.62;62.68;101034.34;6151425;23;20235;-66
2023/07/19 15:08:36;;;;;;;2.22;1.10;;;;;;;23.77;62.30;101023.81;6077810;28;20999;-68
2023/07/19 15:12:02;;;;;;;1.73;1.13;;;;;;;22.07;64.53;101030.22;6080150;28;20231;-67
2023/07/19 15:15:28;;;;;;;3.03;1.65;;;;;;;21.48;67.14;101029.13;6104061;28;20247;-68
2023/07/19 15:18:50;;;;;;;1.83;1.60;;;;;;;22.37;65.87;101029.88;6108836;28;20230;-67
2023/07/19 15:22:11;;;;;;;2.50;1.88;;;;;;;21.82;66.76;101031.00;6125062;28;20238;-67
2023/07/19 15:25:33;;;;;;;1.50;1.33;;;;;;;22.21;67.64;101029.22;6132873;28;20278;-67
2023/07/19 15:28:55;;;;;;;1.40;1.30;;;;;;;21.96;67.39;101024.50;6102443;28;20293;-68
2023/07/19 15:32:30;;;;;;;1.77;1.67;;;;;;;22.26;66.91;101012.09;6121658;28;20230;-67
2023/07/19 15:35:53;;;;;;;3.92;2.10;;;;;;;22.34;65.92;101019.31;6098761;28;20638;-68
2023/07/19 15:39:18;;;;;;;1.75;1.65;;;;;;;22.32;65.89;101026.91;6116725;28;20242;-68
2023/07/19 15:42:40;;;;;;;3.33;1.50;;;;;;;22.59;65.82;101006.69;6181586;23;20312;-66
2023/07/19 15:46:02;;;;;;;17.65;16.00;;;;;;;22.89;65.48;101003.28;6124616;28;20317;-67
2023/07/19 15:49:26;;;;;;;11.07;10.15;;;;;;;23.78;64.57;101009.00;6098022;28;20449;-68
2023/07/19 15:52:50;;;;;;;5.53;5.00;;;;;;;23.86;63.94;101007.91;6100105;28;20231;-67
2023/07/19 15:56:13;;;;;;;8.55;7.50;;;;;;;23.16;64.39;101001.31;6086505;28;20760;-67